createdAt,value
2018-12-03T00:04:19.667Z,6.00
2018-12-03T00:14:44.229Z,6.13
2018-12-03T00:25:11.274Z,6.27
2018-12-03T00:35:34.106Z,6.33
2018-12-03T00:45:56.867Z,6.20
2018-12-03T00:56:20.531Z,6.30
2018-12-03T01:06:45.062Z,4.90
2018-12-03T01:17:07.625Z,7.03
2018-12-03T01:27:29.781Z,7.80
2018-12-03T01:37:52.519Z,9.03
2018-12-03T01:48:17.684Z,7.43
2018-12-03T01:58:44.347Z,5.00
2018-12-03T02:09:10.539Z,7.03
2018-12-03T02:19:34.933Z,9.23
2018-12-03T02:29:57.402Z,9.07
2018-12-03T02:40:22.578Z,5.10
2018-12-03T02:50:52.222Z,7.43
2018-12-03T03:01:17.230Z,7.30
2018-12-03T03:11:39.883Z,8.37
2018-12-03T03:22:03.364Z,6.37
2018-12-03T03:32:26.986Z,2.30
2018-12-03T03:42:51.796Z,3.13
2018-12-03T03:53:14.624Z,4.20
2018-12-03T04:03:39.604Z,3.75
2018-12-03T04:14:02.175Z,3.07
2018-12-03T04:24:33.052Z,4.87
2018-12-03T04:34:58.558Z,3.63
2018-12-03T04:45:21.371Z,3.03
2018-12-03T04:55:47.161Z,3.23
2018-12-03T05:06:09.676Z,3.40
2018-12-03T05:16:32.489Z,4.43
2018-12-03T05:26:54.854Z,4.80
2018-12-03T05:37:19.607Z,6.03
2018-12-03T05:47:42.762Z,6.53
2018-12-03T05:58:05.451Z,5.80
2018-12-03T06:08:28.396Z,4.53
2018-12-03T06:18:50.718Z,6.57
2018-12-03T06:29:13.295Z,10.07
2018-12-03T06:39:35.773Z,11.03
2018-12-03T06:49:58.340Z,9.93
2018-12-03T07:00:23.543Z,12.00
2018-12-03T07:10:47.721Z,9.95
2018-12-03T07:21:10.966Z,12.57
2018-12-03T07:31:37.722Z,15.50
2018-12-03T07:42:12.617Z,14.67
2018-12-03T07:52:42.090Z,21.10
2018-12-03T08:03:36.896Z,21.90
2018-12-03T08:14:04.299Z,14.90
2018-12-03T08:24:36.630Z,17.57
2018-12-03T08:35:03.102Z,17.33
2018-12-03T08:45:51.574Z,14.60
2018-12-03T08:56:26.684Z,15.30
2018-12-03T09:06:50.245Z,17.03
2018-12-03T09:17:32.427Z,16.03
2018-12-03T09:27:55.684Z,17.30
2018-12-03T09:38:48.724Z,17.37
2018-12-03T10:00:04.789Z,14.97
2018-12-03T10:21:17.718Z,16.03
2018-12-03T10:42:49.335Z,14.57
2018-12-03T10:53:16.052Z,17.32
2018-12-03T11:04:00.975Z,13.67
2018-12-03T11:14:28.680Z,12.60
2018-12-03T11:24:55.600Z,16.90
2018-12-03T11:35:58.630Z,18.63
2018-12-03T11:46:26.406Z,11.80
2018-12-03T11:57:14.763Z,14.93
2018-12-03T12:07:44.439Z,16.50
2018-12-03T12:18:07.834Z,11.70
2018-12-03T12:28:40.133Z,13.40
2018-12-03T12:39:14.946Z,14.87
2018-12-03T12:49:39.553Z,17.13
2018-12-03T13:00:07.246Z,7.97
2018-12-03T13:21:38.376Z,8.57
2018-12-03T13:32:09.508Z,12.43
2018-12-03T13:42:37.900Z,9.07
2018-12-03T13:53:01.874Z,8.87
2018-12-03T14:03:25.462Z,5.75
2018-12-03T14:13:53.971Z,7.10
2018-12-03T14:24:19.685Z,8.08
2018-12-03T14:34:42.192Z,11.73
2018-12-03T14:45:04.884Z,11.67
2018-12-03T14:55:27.398Z,11.07
2018-12-03T15:05:50.861Z,8.17
2018-12-03T15:16:28.315Z,8.50
2018-12-03T15:26:50.883Z,13.63
2018-12-03T15:37:13.396Z,11.33
2018-12-03T15:47:35.803Z,12.43
2018-12-03T15:57:58.104Z,6.87
2018-12-03T16:08:21.764Z,7.58
2018-12-03T16:18:44.207Z,9.00
2018-12-03T16:29:08.953Z,6.20
2018-12-03T16:39:31.404Z,8.80
2018-12-03T16:49:55.018Z,9.53
2018-12-03T17:00:17.350Z,5.80
2018-12-03T17:10:39.747Z,6.93
2018-12-03T17:21:12.356Z,8.50
2018-12-03T17:31:34.672Z,8.67
2018-12-03T17:41:57.927Z,7.57
2018-12-03T17:52:20.507Z,7.60
2018-12-03T18:02:42.724Z,7.87
2018-12-03T18:13:05.815Z,6.60
2018-12-03T18:23:28.092Z,10.13
2018-12-03T18:33:50.354Z,15.07
2018-12-03T18:44:12.640Z,13.23
2018-12-03T18:54:35.211Z,9.73
2018-12-03T19:04:58.906Z,13.73
2018-12-03T19:15:21.609Z,17.97
2018-12-03T19:25:44.045Z,16.60
2018-12-03T19:36:06.240Z,19.53
2018-12-03T19:46:28.929Z,18.80
2018-12-03T19:56:54.668Z,15.73
2018-12-03T20:07:18.360Z,18.52
2018-12-03T20:17:41.864Z,20.87
2018-12-03T20:28:15.821Z,14.90
2018-12-03T20:39:08.765Z,23.57
2018-12-03T20:49:39.963Z,20.37
2018-12-03T21:00:02.038Z,21.93
2018-12-03T21:10:24.834Z,20.17
2018-12-03T21:20:51.295Z,20.07
2018-12-03T21:31:13.917Z,18.20
2018-12-03T21:41:36.130Z,18.67
2018-12-03T21:51:58.617Z,22.07
2018-12-03T22:02:24.089Z,23.70
2018-12-03T22:12:45.492Z,25.30
2018-12-03T22:23:07.863Z,16.60
2018-12-03T22:33:29.991Z,13.53
2018-12-03T22:44:31.748Z,3.60
2018-12-03T22:54:46.677Z,3.67
2018-12-03T23:05:01.922Z,6.60
2018-12-03T23:15:17.472Z,8.47
2018-12-03T23:25:32.394Z,3.10
2018-12-03T23:35:47.397Z,6.30
2018-12-03T23:46:02.699Z,6.10
2018-12-03T23:56:17.521Z,4.67
